VE-0115 weather

Lamargas Heliport
Zulia, Venezuela

Public forecast

Using degrees Celsius for public forecast. Weather courtesy of forecast.io.

METAR (pilot weather report)

Report is more than 6 hours old.

Closest report is Hacienda San José Airport, 38.0 nm (70.4 km) ESE. Retrieved 2009/08/18 12:00 UTC (10 years ago):

SVSS 181200Z 00000KT 5000 +HZ BKN030 XX/XX Q1014

TAF (pilot weather forecast)

Forecast is more than 12 hours old.

Closest forecast is La Chinita International Airport, 54.2 nm (100.3 km) N. Retrieved 2019/03/26 00:55 UTC (22 hours ago):

TAF SVMC 252200Z 2600/2700 01012KT 9999 FEW020 TX31/2615Z TN25/2608Z BECMG 2600/2604 04008KT 9999 SCT016 BKN020